sensor_id;sensor_type;location;lat;lon;timestamp;temperature;humidity
5276;DHT22;2661;50.786;12.728;2022-11-18T00:02:04;7.50;99.90
5276;DHT22;2661;50.786;12.728;2022-11-18T00:04:31;7.50;99.90
5276;DHT22;2661;50.786;12.728;2022-11-18T00:06:57;7.50;99.90
5276;DHT22;2661;50.786;12.728;2022-11-18T00:09:24;7.50;99.90
5276;DHT22;2661;50.786;12.728;2022-11-18T00:11:50;7.50;99.90
5276;DHT22;2661;50.786;12.728;2022-11-18T00:14:36;7.50;99.90
5276;DHT22;2661;50.786;12.728;2022-11-18T00:17:03;7.40;99.90
5276;DHT22;2661;50.786;12.728;2022-11-18T00:19:31;7.40;99.90
5276;DHT22;2661;50.786;12.728;2022-11-18T00:21:58;7.40;99.90
5276;DHT22;2661;50.786;12.728;2022-11-18T00:24:25;7.40;99.90
5276;DHT22;2661;50.786;12.728;2022-11-18T00:26:52;7.40;99.90
5276;DHT22;2661;50.786;12.728;2022-11-18T00:29:20;7.40;1.00
5276;DHT22;2661;50.786;12.728;2022-11-18T00:31:47;7.40;1.00
5276;DHT22;2661;50.786;12.728;2022-11-18T00:34:14;7.40;99.90
5276;DHT22;2661;50.786;12.728;2022-11-18T00:36:41;7.40;99.90
5276;DHT22;2661;50.786;12.728;2022-11-18T00:39:11;7.40;99.90
5276;DHT22;2661;50.786;12.728;2022-11-18T00:41:38;7.40;99.90
5276;DHT22;2661;50.786;12.728;2022-11-18T00:44:24;7.50;99.90
5276;DHT22;2661;50.786;12.728;2022-11-18T00:46:51;7.50;99.90
5276;DHT22;2661;50.786;12.728;2022-11-18T00:49:17;7.40;99.90
5276;DHT22;2661;50.786;12.728;2022-11-18T00:51:44;7.50;99.90
5276;DHT22;2661;50.786;12.728;2022-11-18T00:54:11;7.50;99.90
5276;DHT22;2661;50.786;12.728;2022-11-18T00:56:38;7.50;99.90
5276;DHT22;2661;50.786;12.728;2022-11-18T00:59:04;7.40;99.90
5276;DHT22;2661;50.786;12.728;2022-11-18T01:01:31;7.50;99.90
5276;DHT22;2661;50.786;12.728;2022-11-18T01:03:58;7.50;99.90
5276;DHT22;2661;50.786;12.728;2022-11-18T01:06:24;7.50;99.90
5276;DHT22;2661;50.786;12.728;2022-11-18T01:08:51;7.40;99.90
5276;DHT22;2661;50.786;12.728;2022-11-18T01:11:17;7.40;99.90
5276;DHT22;2661;50.786;12.728;2022-11-18T01:14:03;7.50;99.90
5276;DHT22;2661;50.786;12.728;2022-11-18T01:16:29;7.40;99.90
5276;DHT22;2661;50.786;12.728;2022-11-18T01:18:56;7.50;99.90
5276;DHT22;2661;50.786;12.728;2022-11-18T01:21:23;7.50;99.90
5276;DHT22;2661;50.786;12.728;2022-11-18T01:23:50;7.50;99.90
5276;DHT22;2661;50.786;12.728;2022-11-18T01:26:16;7.50;99.90
5276;DHT22;2661;50.786;12.728;2022-11-18T01:28:43;7.50;99.90
5276;DHT22;2661;50.786;12.728;2022-11-18T01:31:11;7.40;99.90
5276;DHT22;2661;50.786;12.728;2022-11-18T01:33:38;7.40;99.90
5276;DHT22;2661;50.786;12.728;2022-11-18T01:36:13;7.40;99.90
5276;DHT22;2661;50.786;12.728;2022-11-18T01:38:39;7.40;99.90
5276;DHT22;2661;50.786;12.728;2022-11-18T01:41:06;7.50;99.90
5276;DHT22;2661;50.786;12.728;2022-11-18T01:46:18;7.40;99.90
5276;DHT22;2661;50.786;12.728;2022-11-18T01:48:45;7.40;99.90
5276;DHT22;2661;50.786;12.728;2022-11-18T01:51:16;7.50;99.90
5276;DHT22;2661;50.786;12.728;2022-11-18T01:53:45;7.50;99.90
5276;DHT22;2661;50.786;12.728;2022-11-18T01:56:23;7.50;99.90
5276;DHT22;2661;50.786;12.728;2022-11-18T01:58:54;7.40;99.90
5276;DHT22;2661;50.786;12.728;2022-11-18T02:01:22;7.40;99.90
5276;DHT22;2661;50.786;12.728;2022-11-18T02:03:49;7.50;99.90
5276;DHT22;2661;50.786;12.728;2022-11-18T02:06:16;7.50;99.90
5276;DHT22;2661;50.786;12.728;2022-11-18T02:08:43;7.50;99.90
5276;DHT22;2661;50.786;12.728;2022-11-18T02:11:10;7.50;99.90
5276;DHT22;2661;50.786;12.728;2022-11-18T02:13:57;7.50;99.90
5276;DHT22;2661;50.786;12.728;2022-11-18T02:21:54;7.50;99.90
5276;DHT22;2661;50.786;12.728;2022-11-18T02:26:54;7.40;1.00
5276;DHT22;2661;50.786;12.728;2022-11-18T02:29:40;7.40;1.00
5276;DHT22;2661;50.786;12.728;2022-11-18T02:32:10;7.50;1.00
5276;DHT22;2661;50.786;12.728;2022-11-18T02:37:14;7.40;1.00
5276;DHT22;2661;50.786;12.728;2022-11-18T02:39:46;7.40;1.00
5276;DHT22;2661;50.786;12.728;2022-11-18T02:42:16;7.50;1.00
5276;DHT22;2661;50.786;12.728;2022-11-18T02:47:47;7.50;1.00
5276;DHT22;2661;50.786;12.728;2022-11-18T02:50:16;7.40;1.00
5276;DHT22;2661;50.786;12.728;2022-11-18T02:52:43;7.40;1.00
5276;DHT22;2661;50.786;12.728;2022-11-18T02:55:11;7.40;1.00
5276;DHT22;2661;50.786;12.728;2022-11-18T02:57:38;7.40;1.00
5276;DHT22;2661;50.786;12.728;2022-11-18T03:00:05;7.40;1.00
5276;DHT22;2661;50.786;12.728;2022-11-18T03:02:39;7.40;1.00
5276;DHT22;2661;50.786;12.728;2022-11-18T03:05:06;7.40;1.00
5276;DHT22;2661;50.786;12.728;2022-11-18T03:07:34;7.40;1.00
5276;DHT22;2661;50.786;12.728;2022-11-18T03:10:01;7.40;1.00
5276;DHT22;2661;50.786;12.728;2022-11-18T03:12:33;7.50;1.00
5276;DHT22;2661;50.786;12.728;2022-11-18T03:15:12;7.40;1.00
5276;DHT22;2661;50.786;12.728;2022-11-18T03:23:01;7.40;1.00
5276;DHT22;2661;50.786;12.728;2022-11-18T03:25:35;7.40;1.00
5276;DHT22;2661;50.786;12.728;2022-11-18T03:31:23;7.30;1.00
5276;DHT22;2661;50.786;12.728;2022-11-18T03:33:43;7.30;1.00
5276;DHT22;2661;50.786;12.728;2022-11-18T03:36:11;7.30;1.00
5276;DHT22;2661;50.786;12.728;2022-11-18T03:38:41;7.30;1.00
5276;DHT22;2661;50.786;12.728;2022-11-18T03:41:10;7.30;1.00
5276;DHT22;2661;50.786;12.728;2022-11-18T03:43:43;7.30;1.00
5276;DHT22;2661;50.786;12.728;2022-11-18T03:48:41;7.30;1.00
5276;DHT22;2661;50.786;12.728;2022-11-18T03:51:10;7.30;1.00
5276;DHT22;2661;50.786;12.728;2022-11-18T03:53:44;7.30;1.00
5276;DHT22;2661;50.786;12.728;2022-11-18T03:56:17;7.30;1.00
5276;DHT22;2661;50.786;12.728;2022-11-18T04:01:16;7.30;1.00
5276;DHT22;2661;50.786;12.728;2022-11-18T04:03:44;7.20;1.00
5276;DHT22;2661;50.786;12.728;2022-11-18T04:06:15;7.20;1.00
5276;DHT22;2661;50.786;12.728;2022-11-18T04:08:46;7.20;1.00
5276;DHT22;2661;50.786;12.728;2022-11-18T04:11:16;7.20;1.00
5276;DHT22;2661;50.786;12.728;2022-11-18T04:14:03;7.20;1.00
5276;DHT22;2661;50.786;12.728;2022-11-18T04:16:42;7.20;1.00
5276;DHT22;2661;50.786;12.728;2022-11-18T04:19:08;7.30;1.00
5276;DHT22;2661;50.786;12.728;2022-11-18T04:21:35;7.30;1.00
5276;DHT22;2661;50.786;12.728;2022-11-18T04:24:02;7.30;1.00
5276;DHT22;2661;50.786;12.728;2022-11-18T04:26:29;7.30;1.00
5276;DHT22;2661;50.786;12.728;2022-11-18T04:28:57;7.20;1.00
5276;DHT22;2661;50.786;12.728;2022-11-18T04:31:23;7.30;1.00
5276;DHT22;2661;50.786;12.728;2022-11-18T04:33:50;7.30;1.00
5276;DHT22;2661;50.786;12.728;2022-11-18T04:36:16;7.40;1.00
5276;DHT22;2661;50.786;12.728;2022-11-18T04:38:45;7.40;1.00
5276;DHT22;2661;50.786;12.728;2022-11-18T04:41:11;7.30;1.00
5276;DHT22;2661;50.786;12.728;2022-11-18T04:43:38;7.20;1.00
5276;DHT22;2661;50.786;12.728;2022-11-18T04:46:04;7.20;1.00
5276;DHT22;2661;50.786;12.728;2022-11-18T04:48:31;7.20;1.00
5276;DHT22;2661;50.786;12.728;2022-11-18T04:51:04;7.20;1.00
5276;DHT22;2661;50.786;12.728;2022-11-18T04:53:33;7.20;20.10
5276;DHT22;2661;50.786;12.728;2022-11-18T04:56:04;7.20;29.70
5276;DHT22;2661;50.786;12.728;2022-11-18T04:58:31;7.20;91.90
5276;DHT22;2661;50.786;12.728;2022-11-18T05:00:57;7.30;60.00
5276;DHT22;2661;50.786;12.728;2022-11-18T05:03:24;7.30;1.00
5276;DHT22;2661;50.786;12.728;2022-11-18T05:05:51;7.30;5.90
5276;DHT22;2661;50.786;12.728;2022-11-18T05:08:17;7.20;1.00
5276;DHT22;2661;50.786;12.728;2022-11-18T05:10:44;7.20;1.00
5276;DHT22;2661;50.786;12.728;2022-11-18T05:13:11;7.20;1.00
5276;DHT22;2661;50.786;12.728;2022-11-18T05:15:38;7.10;1.00
5276;DHT22;2661;50.786;12.728;2022-11-18T05:18:04;7.10;4.40
5276;DHT22;2661;50.786;12.728;2022-11-18T05:20:31;7.10;34.80
5276;DHT22;2661;50.786;12.728;2022-11-18T05:23:02;7.00;14.60
5276;DHT22;2661;50.786;12.728;2022-11-18T05:25:29;7.00;1.00
5276;DHT22;2661;50.786;12.728;2022-11-18T05:27:55;7.00;14.10
5276;DHT22;2661;50.786;12.728;2022-11-18T05:30:22;7.00;16.60
5276;DHT22;2661;50.786;12.728;2022-11-18T05:32:49;7.00;9.90
5276;DHT22;2661;50.786;12.728;2022-11-18T05:35:15;7.00;46.70
5276;DHT22;2661;50.786;12.728;2022-11-18T05:37:42;7.00;81.90
5276;DHT22;2661;50.786;12.728;2022-11-18T05:40:08;7.00;99.90
5276;DHT22;2661;50.786;12.728;2022-11-18T05:42:35;7.00;93.10
5276;DHT22;2661;50.786;12.728;2022-11-18T05:45:20;7.00;95.80
5276;DHT22;2661;50.786;12.728;2022-11-18T05:47:47;7.00;90.20
5276;DHT22;2661;50.786;12.728;2022-11-18T05:50:26;7.00;99.90
5276;DHT22;2661;50.786;12.728;2022-11-18T05:52:52;7.10;99.90
5276;DHT22;2661;50.786;12.728;2022-11-18T05:55:19;7.10;99.90
5276;DHT22;2661;50.786;12.728;2022-11-18T05:57:46;7.10;99.90
5276;DHT22;2661;50.786;12.728;2022-11-18T06:00:13;7.10;18.60
5276;DHT22;2661;50.786;12.728;2022-11-18T06:02:40;7.10;41.60
5276;DHT22;2661;50.786;12.728;2022-11-18T06:05:07;7.20;99.90
5276;DHT22;2661;50.786;12.728;2022-11-18T06:07:41;7.20;99.90
5276;DHT22;2661;50.786;12.728;2022-11-18T06:10:10;7.20;41.10
5276;DHT22;2661;50.786;12.728;2022-11-18T06:12:38;7.30;66.80
5276;DHT22;2661;50.786;12.728;2022-11-18T06:15:20;7.30;29.30
5276;DHT22;2661;50.786;12.728;2022-11-18T06:17:52;7.30;34.10
5276;DHT22;2661;50.786;12.728;2022-11-18T06:20:21;7.30;94.90
5276;DHT22;2661;50.786;12.728;2022-11-18T06:22:48;7.40;1.00
5276;DHT22;2661;50.786;12.728;2022-11-18T06:25:16;7.40;1.00
5276;DHT22;2661;50.786;12.728;2022-11-18T06:27:42;7.40;1.00
5276;DHT22;2661;50.786;12.728;2022-11-18T06:30:09;7.30;1.00
5276;DHT22;2661;50.786;12.728;2022-11-18T06:32:36;7.40;1.00
5276;DHT22;2661;50.786;12.728;2022-11-18T06:35:03;7.40;1.00
5276;DHT22;2661;50.786;12.728;2022-11-18T06:37:30;7.40;9.80
5276;DHT22;2661;50.786;12.728;2022-11-18T06:39:57;7.40;24.00
5276;DHT22;2661;50.786;12.728;2022-11-18T06:42:25;7.40;8.20
5276;DHT22;2661;50.786;12.728;2022-11-18T06:45:11;7.40;1.00
5276;DHT22;2661;50.786;12.728;2022-11-18T06:47:38;7.40;18.50
5276;DHT22;2661;50.786;12.728;2022-11-18T06:50:04;7.40;1.00
5276;DHT22;2661;50.786;12.728;2022-11-18T06:52:31;7.50;1.00
5276;DHT22;2661;50.786;12.728;2022-11-18T06:54:58;7.60;1.00
5276;DHT22;2661;50.786;12.728;2022-11-18T06:57:25;7.80;1.00
5276;DHT22;2661;50.786;12.728;2022-11-18T06:59:51;7.80;1.00
5276;DHT22;2661;50.786;12.728;2022-11-18T07:02:24;7.80;1.00
5276;DHT22;2661;50.786;12.728;2022-11-18T07:04:51;7.80;1.00
5276;DHT22;2661;50.786;12.728;2022-11-18T07:07:17;7.80;1.00
5276;DHT22;2661;50.786;12.728;2022-11-18T07:09:44;7.80;99.90
5276;DHT22;2661;50.786;12.728;2022-11-18T07:12:10;7.70;99.90
5276;DHT22;2661;50.786;12.728;2022-11-18T07:14:37;7.60;1.00
5276;DHT22;2661;50.786;12.728;2022-11-18T07:17:04;7.50;1.00
5276;DHT22;2661;50.786;12.728;2022-11-18T07:19:30;7.30;99.90
5276;DHT22;2661;50.786;12.728;2022-11-18T07:22:01;7.30;1.00
5276;DHT22;2661;50.786;12.728;2022-11-18T07:24:28;7.30;99.90
5276;DHT22;2661;50.786;12.728;2022-11-18T07:26:54;7.30;99.90
5276;DHT22;2661;50.786;12.728;2022-11-18T07:29:21;7.30;99.90
5276;DHT22;2661;50.786;12.728;2022-11-18T07:31:47;7.30;99.90
5276;DHT22;2661;50.786;12.728;2022-11-18T07:34:14;7.30;99.90
5276;DHT22;2661;50.786;12.728;2022-11-18T07:36:40;7.30;99.90
5276;DHT22;2661;50.786;12.728;2022-11-18T07:39:07;7.40;99.90
5276;DHT22;2661;50.786;12.728;2022-11-18T07:41:34;7.40;99.90
5276;DHT22;2661;50.786;12.728;2022-11-18T07:44:02;7.40;99.90
5276;DHT22;2661;50.786;12.728;2022-11-18T07:46:30;7.30;99.90
5276;DHT22;2661;50.786;12.728;2022-11-18T07:48:57;7.30;99.90
5276;DHT22;2661;50.786;12.728;2022-11-18T07:51:26;7.20;99.90
5276;DHT22;2661;50.786;12.728;2022-11-18T07:53:53;7.00;99.90
5276;DHT22;2661;50.786;12.728;2022-11-18T07:56:22;7.00;99.90
5276;DHT22;2661;50.786;12.728;2022-11-18T07:58:52;7.00;99.90
5276;DHT22;2661;50.786;12.728;2022-11-18T08:01:20;7.10;99.90
5276;DHT22;2661;50.786;12.728;2022-11-18T08:03:47;7.10;99.90
5276;DHT22;2661;50.786;12.728;2022-11-18T08:06:15;7.20;99.90
5276;DHT22;2661;50.786;12.728;2022-11-18T08:08:42;7.10;99.90
5276;DHT22;2661;50.786;12.728;2022-11-18T08:11:09;7.10;99.90
5276;DHT22;2661;50.786;12.728;2022-11-18T08:13:36;7.10;99.90
5276;DHT22;2661;50.786;12.728;2022-11-18T08:16:03;6.90;99.90
5276;DHT22;2661;50.786;12.728;2022-11-18T08:18:31;7.00;99.90
5276;DHT22;2661;50.786;12.728;2022-11-18T08:21:00;6.90;99.90
5276;DHT22;2661;50.786;12.728;2022-11-18T08:23:27;6.90;99.90
5276;DHT22;2661;50.786;12.728;2022-11-18T08:26:03;6.60;99.90
5276;DHT22;2661;50.786;12.728;2022-11-18T08:28:30;6.50;99.90
5276;DHT22;2661;50.786;12.728;2022-11-18T08:30:57;6.40;99.90
5276;DHT22;2661;50.786;12.728;2022-11-18T08:33:24;6.30;99.90
5276;DHT22;2661;50.786;12.728;2022-11-18T08:35:51;6.20;99.90
5276;DHT22;2661;50.786;12.728;2022-11-18T08:38:17;6.20;99.90
5276;DHT22;2661;50.786;12.728;2022-11-18T08:40:45;6.20;99.90
5276;DHT22;2661;50.786;12.728;2022-11-18T08:43:13;6.20;99.90
5276;DHT22;2661;50.786;12.728;2022-11-18T08:45:40;6.20;99.90
5276;DHT22;2661;50.786;12.728;2022-11-18T08:48:06;6.10;99.90
5276;DHT22;2661;50.786;12.728;2022-11-18T08:50:33;6.00;99.90
5276;DHT22;2661;50.786;12.728;2022-11-18T08:53:00;6.00;99.90
5276;DHT22;2661;50.786;12.728;2022-11-18T08:55:26;6.10;99.90
5276;DHT22;2661;50.786;12.728;2022-11-18T08:57:53;6.10;99.90
5276;DHT22;2661;50.786;12.728;2022-11-18T09:00:19;6.00;99.90
5276;DHT22;2661;50.786;12.728;2022-11-18T09:02:46;6.00;99.90
5276;DHT22;2661;50.786;12.728;2022-11-18T09:05:14;5.90;99.90
5276;DHT22;2661;50.786;12.728;2022-11-18T09:07:40;5.90;99.90
5276;DHT22;2661;50.786;12.728;2022-11-18T09:10:07;5.90;99.90
5276;DHT22;2661;50.786;12.728;2022-11-18T09:12:34;5.90;99.90
5276;DHT22;2661;50.786;12.728;2022-11-18T09:15:00;5.80;99.90
5276;DHT22;2661;50.786;12.728;2022-11-18T09:17:43;5.70;99.90
5276;DHT22;2661;50.786;12.728;2022-11-18T09:20:10;5.60;99.90
5276;DHT22;2661;50.786;12.728;2022-11-18T09:22:36;5.60;99.90
5276;DHT22;2661;50.786;12.728;2022-11-18T09:25:04;5.50;99.90
5276;DHT22;2661;50.786;12.728;2022-11-18T09:27:31;5.40;99.90
5276;DHT22;2661;50.786;12.728;2022-11-18T09:29:57;5.40;99.90
5276;DHT22;2661;50.786;12.728;2022-11-18T09:32:24;5.30;99.90
5276;DHT22;2661;50.786;12.728;2022-11-18T09:34:51;5.20;99.90
5276;DHT22;2661;50.786;12.728;2022-11-18T09:37:17;5.30;99.90
5276;DHT22;2661;50.786;12.728;2022-11-18T09:39:44;5.20;99.90
5276;DHT22;2661;50.786;12.728;2022-11-18T09:42:18;5.20;99.90
5276;DHT22;2661;50.786;12.728;2022-11-18T09:44:54;5.20;99.90
5276;DHT22;2661;50.786;12.728;2022-11-18T09:47:27;5.10;99.90
5276;DHT22;2661;50.786;12.728;2022-11-18T09:49:55;5.10;99.90
5276;DHT22;2661;50.786;12.728;2022-11-18T09:54:55;5.20;99.90
5276;DHT22;2661;50.786;12.728;2022-11-18T09:57:23;5.10;99.90
5276;DHT22;2661;50.786;12.728;2022-11-18T09:59:50;5.10;99.90
5276;DHT22;2661;50.786;12.728;2022-11-18T10:02:28;5.00;99.90
5276;DHT22;2661;50.786;12.728;2022-11-18T10:04:56;5.00;99.90
5276;DHT22;2661;50.786;12.728;2022-11-18T10:07:41;5.00;99.90
5276;DHT22;2661;50.786;12.728;2022-11-18T10:10:11;5.00;99.90
5276;DHT22;2661;50.786;12.728;2022-11-18T10:13:01;4.90;99.90
5276;DHT22;2661;50.786;12.728;2022-11-18T10:15:33;4.90;99.90
5276;DHT22;2661;50.786;12.728;2022-11-18T10:20:50;4.90;99.90
5276;DHT22;2661;50.786;12.728;2022-11-18T10:23:22;5.00;99.90
5276;DHT22;2661;50.786;12.728;2022-11-18T10:25:51;5.00;99.90
5276;DHT22;2661;50.786;12.728;2022-11-18T10:28:22;4.90;99.90
5276;DHT22;2661;50.786;12.728;2022-11-18T10:30:49;4.90;99.90
5276;DHT22;2661;50.786;12.728;2022-11-18T10:33:17;5.00;99.90
5276;DHT22;2661;50.786;12.728;2022-11-18T10:35:47;4.90;99.90
5276;DHT22;2661;50.786;12.728;2022-11-18T10:38:18;4.80;99.90
5276;DHT22;2661;50.786;12.728;2022-11-18T10:48:41;4.60;99.90
5276;DHT22;2661;50.786;12.728;2022-11-18T10:51:21;4.60;99.90
5276;DHT22;2661;50.786;12.728;2022-11-18T10:53:48;4.40;99.90
5276;DHT22;2661;50.786;12.728;2022-11-18T10:56:15;4.30;99.90
5276;DHT22;2661;50.786;12.728;2022-11-18T10:58:42;4.40;99.90
5276;DHT22;2661;50.786;12.728;2022-11-18T11:01:26;4.40;99.90
5276;DHT22;2661;50.786;12.728;2022-11-18T11:08:53;4.20;99.90
5276;DHT22;2661;50.786;12.728;2022-11-18T11:11:24;4.30;99.90
5276;DHT22;2661;50.786;12.728;2022-11-18T11:16:42;4.30;99.90
5276;DHT22;2661;50.786;12.728;2022-11-18T11:19:11;4.20;99.90
5276;DHT22;2661;50.786;12.728;2022-11-18T11:21:38;4.00;99.90
5276;DHT22;2661;50.786;12.728;2022-11-18T11:24:09;4.00;99.90
5276;DHT22;2661;50.786;12.728;2022-11-18T11:26:42;4.10;99.90
5276;DHT22;2661;50.786;12.728;2022-11-18T11:29:49;4.10;99.90
5276;DHT22;2661;50.786;12.728;2022-11-18T11:45:36;3.40;99.90
5276;DHT22;2661;50.786;12.728;2022-11-18T11:50:53;3.00;99.90
5276;DHT22;2661;50.786;12.728;2022-11-18T11:53:34;3.10;99.90
5276;DHT22;2661;50.786;12.728;2022-11-18T12:01:37;3.10;99.90
5276;DHT22;2661;50.786;12.728;2022-11-18T12:04:10;3.10;99.90
5276;DHT22;2661;50.786;12.728;2022-11-18T12:06:39;3.10;99.90
5276;DHT22;2661;50.786;12.728;2022-11-18T12:09:13;3.00;99.90
5276;DHT22;2661;50.786;12.728;2022-11-18T12:11:45;3.10;99.90
5276;DHT22;2661;50.786;12.728;2022-11-18T12:16:48;2.90;99.90
5276;DHT22;2661;50.786;12.728;2022-11-18T12:19:19;2.80;99.90
5276;DHT22;2661;50.786;12.728;2022-11-18T12:21:51;2.70;99.90
5276;DHT22;2661;50.786;12.728;2022-11-18T12:29:53;2.60;99.90
5276;DHT22;2661;50.786;12.728;2022-11-18T12:32:25;2.70;99.90
5276;DHT22;2661;50.786;12.728;2022-11-18T12:35:38;2.70;99.90
5276;DHT22;2661;50.786;12.728;2022-11-18T12:38:13;2.70;99.90
5276;DHT22;2661;50.786;12.728;2022-11-18T12:40:42;2.70;99.90
5276;DHT22;2661;50.786;12.728;2022-11-18T12:51:48;2.60;99.90
5276;DHT22;2661;50.786;12.728;2022-11-18T12:54:25;2.70;99.90
5276;DHT22;2661;50.786;12.728;2022-11-18T12:56:52;2.60;99.90
5276;DHT22;2661;50.786;12.728;2022-11-18T12:59:26;2.50;99.90
5276;DHT22;2661;50.786;12.728;2022-11-18T13:02:00;2.70;99.90
5276;DHT22;2661;50.786;12.728;2022-11-18T13:04:27;2.70;99.90
5276;DHT22;2661;50.786;12.728;2022-11-18T13:06:53;2.70;99.90
5276;DHT22;2661;50.786;12.728;2022-11-18T13:09:25;2.70;99.90
5276;DHT22;2661;50.786;12.728;2022-11-18T13:11:55;2.70;99.90
5276;DHT22;2661;50.786;12.728;2022-11-18T13:14:27;2.70;99.90
5276;DHT22;2661;50.786;12.728;2022-11-18T13:20:27;2.80;99.90
5276;DHT22;2661;50.786;12.728;2022-11-18T13:22:59;2.90;99.90
5276;DHT22;2661;50.786;12.728;2022-11-18T13:26:02;3.00;99.90
5276;DHT22;2661;50.786;12.728;2022-11-18T13:31:06;2.90;99.90
5276;DHT22;2661;50.786;12.728;2022-11-18T13:33:39;2.90;99.90
5276;DHT22;2661;50.786;12.728;2022-11-18T13:36:19;2.90;99.90
5276;DHT22;2661;50.786;12.728;2022-11-18T13:38:59;3.00;99.90
5276;DHT22;2661;50.786;12.728;2022-11-18T13:41:26;3.00;99.90
5276;DHT22;2661;50.786;12.728;2022-11-18T13:46:38;2.90;99.90
5276;DHT22;2661;50.786;12.728;2022-11-18T13:49:09;2.80;99.90
5276;DHT22;2661;50.786;12.728;2022-11-18T13:51:37;2.80;99.90
5276;DHT22;2661;50.786;12.728;2022-11-18T13:54:04;2.80;99.90
5276;DHT22;2661;50.786;12.728;2022-11-18T13:56:30;2.70;99.90
5276;DHT22;2661;50.786;12.728;2022-11-18T13:59:00;2.80;99.90
5276;DHT22;2661;50.786;12.728;2022-11-18T14:01:44;2.70;99.90
5276;DHT22;2661;50.786;12.728;2022-11-18T14:04:21;2.70;99.90
5276;DHT22;2661;50.786;12.728;2022-11-18T14:06:48;2.60;99.90
5276;DHT22;2661;50.786;12.728;2022-11-18T14:12:00;2.50;99.90
5276;DHT22;2661;50.786;12.728;2022-11-18T14:14:29;2.50;99.90
5276;DHT22;2661;50.786;12.728;2022-11-18T14:17:30;2.50;99.90
5276;DHT22;2661;50.786;12.728;2022-11-18T14:19:56;2.50;99.90
5276;DHT22;2661;50.786;12.728;2022-11-18T14:22:24;2.60;99.90
5276;DHT22;2661;50.786;12.728;2022-11-18T14:35:37;2.30;99.90
5276;DHT22;2661;50.786;12.728;2022-11-18T14:38:10;2.40;99.90
5276;DHT22;2661;50.786;12.728;2022-11-18T14:40:59;2.40;99.90
5276;DHT22;2661;50.786;12.728;2022-11-18T14:43:26;2.40;99.90
5276;DHT22;2661;50.786;12.728;2022-11-18T14:46:03;2.40;99.90
5276;DHT22;2661;50.786;12.728;2022-11-18T14:48:30;2.30;99.90
5276;DHT22;2661;50.786;12.728;2022-11-18T14:51:00;2.20;99.90
5276;DHT22;2661;50.786;12.728;2022-11-18T14:53:29;2.30;99.90
5276;DHT22;2661;50.786;12.728;2022-11-18T14:55:56;2.40;99.90
5276;DHT22;2661;50.786;12.728;2022-11-18T14:58:23;2.30;99.90
5276;DHT22;2661;50.786;12.728;2022-11-18T15:00:50;2.40;99.90
5276;DHT22;2661;50.786;12.728;2022-11-18T15:03:16;2.40;99.90
5276;DHT22;2661;50.786;12.728;2022-11-18T15:05:43;2.40;99.90
5276;DHT22;2661;50.786;12.728;2022-11-18T15:08:10;2.20;99.90
5276;DHT22;2661;50.786;12.728;2022-11-18T15:10:36;2.10;99.90
5276;DHT22;2661;50.786;12.728;2022-11-18T15:13:03;2.10;99.90
5276;DHT22;2661;50.786;12.728;2022-11-18T15:15:29;2.00;99.90
5276;DHT22;2661;50.786;12.728;2022-11-18T15:17:56;2.00;99.90
5276;DHT22;2661;50.786;12.728;2022-11-18T15:20:23;2.00;99.90
5276;DHT22;2661;50.786;12.728;2022-11-18T15:22:49;1.90;99.90
5276;DHT22;2661;50.786;12.728;2022-11-18T15:25:16;2.00;99.90
5276;DHT22;2661;50.786;12.728;2022-11-18T15:27:42;1.90;99.90
5276;DHT22;2661;50.786;12.728;2022-11-18T15:30:10;2.00;99.90
5276;DHT22;2661;50.786;12.728;2022-11-18T15:32:37;2.00;99.90
5276;DHT22;2661;50.786;12.728;2022-11-18T15:35:04;1.90;99.90
5276;DHT22;2661;50.786;12.728;2022-11-18T15:37:30;2.00;99.90
5276;DHT22;2661;50.786;12.728;2022-11-18T15:39:57;1.80;99.90
5276;DHT22;2661;50.786;12.728;2022-11-18T15:42:25;1.70;99.90
5276;DHT22;2661;50.786;12.728;2022-11-18T15:44:51;1.60;99.90
5276;DHT22;2661;50.786;12.728;2022-11-18T15:47:18;1.70;99.90
5276;DHT22;2661;50.786;12.728;2022-11-18T15:49:44;1.70;99.90
5276;DHT22;2661;50.786;12.728;2022-11-18T15:52:11;1.50;99.90
5276;DHT22;2661;50.786;12.728;2022-11-18T15:54:37;1.60;99.90
5276;DHT22;2661;50.786;12.728;2022-11-18T15:57:04;1.60;99.90
5276;DHT22;2661;50.786;12.728;2022-11-18T15:59:31;1.50;99.90
5276;DHT22;2661;50.786;12.728;2022-11-18T16:01:58;1.50;99.90
5276;DHT22;2661;50.786;12.728;2022-11-18T16:04:24;1.50;99.90
5276;DHT22;2661;50.786;12.728;2022-11-18T16:06:51;1.60;99.90
5276;DHT22;2661;50.786;12.728;2022-11-18T16:09:19;1.50;99.90
5276;DHT22;2661;50.786;12.728;2022-11-18T16:11:45;1.50;99.90
5276;DHT22;2661;50.786;12.728;2022-11-18T16:14:31;1.50;99.90
5276;DHT22;2661;50.786;12.728;2022-11-18T16:16:57;1.40;99.90
5276;DHT22;2661;50.786;12.728;2022-11-18T16:19:24;1.30;99.90
5276;DHT22;2661;50.786;12.728;2022-11-18T16:21:52;1.40;99.90
5276;DHT22;2661;50.786;12.728;2022-11-18T16:24:23;1.40;99.90
5276;DHT22;2661;50.786;12.728;2022-11-18T16:26:50;1.30;99.90
5276;DHT22;2661;50.786;12.728;2022-11-18T16:29:17;1.10;99.90
5276;DHT22;2661;50.786;12.728;2022-11-18T16:31:45;1.20;99.90
5276;DHT22;2661;50.786;12.728;2022-11-18T16:34:17;1.00;99.90
5276;DHT22;2661;50.786;12.728;2022-11-18T16:36:45;0.90;99.90
5276;DHT22;2661;50.786;12.728;2022-11-18T16:39:13;0.80;99.90
5276;DHT22;2661;50.786;12.728;2022-11-18T16:41:40;0.80;99.90
5276;DHT22;2661;50.786;12.728;2022-11-18T16:44:08;0.80;99.90
5276;DHT22;2661;50.786;12.728;2022-11-18T16:46:36;0.90;99.90
5276;DHT22;2661;50.786;12.728;2022-11-18T16:49:04;0.90;99.90
5276;DHT22;2661;50.786;12.728;2022-11-18T16:51:31;0.90;99.90
5276;DHT22;2661;50.786;12.728;2022-11-18T16:53:59;0.90;99.90
5276;DHT22;2661;50.786;12.728;2022-11-18T16:56:28;0.80;99.90
5276;DHT22;2661;50.786;12.728;2022-11-18T16:59:05;0.80;99.90
5276;DHT22;2661;50.786;12.728;2022-11-18T17:01:32;0.80;99.90
5276;DHT22;2661;50.786;12.728;2022-11-18T17:03:59;0.70;99.90
5276;DHT22;2661;50.786;12.728;2022-11-18T17:06:26;0.80;99.90
5276;DHT22;2661;50.786;12.728;2022-11-18T17:08:53;0.80;99.90
5276;DHT22;2661;50.786;12.728;2022-11-18T17:11:20;0.80;99.90
5276;DHT22;2661;50.786;12.728;2022-11-18T17:13:47;0.70;99.90
5276;DHT22;2661;50.786;12.728;2022-11-18T17:16:19;0.80;99.90
5276;DHT22;2661;50.786;12.728;2022-11-18T17:18:46;0.80;99.90
5276;DHT22;2661;50.786;12.728;2022-11-18T17:21:14;0.80;99.90
5276;DHT22;2661;50.786;12.728;2022-11-18T17:23:46;0.90;99.90
5276;DHT22;2661;50.786;12.728;2022-11-18T17:26:13;0.90;99.90
5276;DHT22;2661;50.786;12.728;2022-11-18T17:28:40;1.00;99.90
5276;DHT22;2661;50.786;12.728;2022-11-18T17:31:08;0.90;99.90
5276;DHT22;2661;50.786;12.728;2022-11-18T17:33:35;0.80;99.90
5276;DHT22;2661;50.786;12.728;2022-11-18T17:36:05;0.90;99.90
5276;DHT22;2661;50.786;12.728;2022-11-18T17:38:36;0.90;99.90
5276;DHT22;2661;50.786;12.728;2022-11-18T17:41:03;0.90;99.90
5276;DHT22;2661;50.786;12.728;2022-11-18T17:43:30;0.90;99.90
5276;DHT22;2661;50.786;12.728;2022-11-18T17:45:57;0.90;99.90
5276;DHT22;2661;50.786;12.728;2022-11-18T17:48:24;0.90;99.90
5276;DHT22;2661;50.786;12.728;2022-11-18T17:50:51;0.80;99.90
5276;DHT22;2661;50.786;12.728;2022-11-18T17:53:18;0.70;99.90
5276;DHT22;2661;50.786;12.728;2022-11-18T17:55:45;0.80;99.90
5276;DHT22;2661;50.786;12.728;2022-11-18T17:58:12;0.80;99.90
5276;DHT22;2661;50.786;12.728;2022-11-18T18:00:39;0.70;99.90
5276;DHT22;2661;50.786;12.728;2022-11-18T18:03:05;0.80;99.90
5276;DHT22;2661;50.786;12.728;2022-11-18T18:05:34;0.70;99.90
5276;DHT22;2661;50.786;12.728;2022-11-18T18:08:00;0.80;99.90
5276;DHT22;2661;50.786;12.728;2022-11-18T18:10:29;0.80;99.90